Time;durP1;ratioP1;P1;durP2;ratioP2;P2;SDS_P1;SDS_P2;PMS_P1;PMS_P2;Temp;Humidity;BMP_temperature;BMP_pressure;BME280_temperature;BME280_humidity;BME280_pressure;Samples;Min_cycle;Max_cycle;Signal;HPM_P1;HPM_P2
2022/03/18 00:02:04;;;;;;;6.67;5.70;;;5.80;99.90;;;;;;5020305;28;20498;-39
2022/03/18 00:04:30;;;;;;;9.90;6.13;;;5.70;99.90;;;;;;5028526;28;20190;-40
2022/03/18 00:06:56;;;;;;;8.73;6.43;;;5.90;99.90;;;;;;5028933;28;20559;-40
2022/03/18 00:09:22;;;;;;;11.10;6.90;;;5.60;99.90;;;;;;5025660;28;20437;-40
2022/03/18 00:11:48;;;;;;;8.60;6.83;;;5.60;99.90;;;;;;5019658;28;20524;-39
2022/03/18 00:14:14;;;;;;;11.23;5.93;;;5.80;99.90;;;;;;5028414;28;20191;-40
2022/03/18 00:16:40;;;;;;;8.67;6.10;;;5.80;99.90;;;;;;5029177;28;20512;-39
2022/03/18 00:19:06;;;;;;;9.43;6.67;;;5.50;99.90;;;;;;5028565;28;20536;-39
2022/03/18 00:21:34;;;;;;;9.63;5.93;;;5.60;99.90;;;;;;5028535;28;20873;-39
2022/03/18 00:24:00;;;;;;;10.00;5.73;;;5.60;99.90;;;;;;5024093;28;20568;-39
2022/03/18 00:26:26;;;;;;;8.40;5.23;;;5.50;99.90;;;;;;5022502;28;20441;-41
2022/03/18 00:28:52;;;;;;;8.70;6.33;;;5.50;99.90;;;;;;5027744;28;20420;-39
2022/03/18 00:31:18;;;;;;;5.73;5.07;;;5.50;99.90;;;;;;5028425;28;20222;-40
2022/03/18 00:33:43;;;;;;;6.27;5.00;;;5.50;99.90;;;;;;5028842;28;20194;-40
2022/03/18 00:36:09;;;;;;;9.00;6.10;;;5.50;99.90;;;;;;5028363;28;20429;-39
2022/03/18 00:38:35;;;;;;;11.47;7.20;;;5.60;99.90;;;;;;5028797;28;20190;-39
2022/03/18 00:41:01;;;;;;;8.80;5.60;;;5.70;99.90;;;;;;5018679;28;20202;-42
2022/03/18 00:43:27;;;;;;;9.03;5.87;;;5.50;99.90;;;;;;5028132;28;20569;-41
2022/03/18 00:45:53;;;;;;;6.07;4.83;;;5.40;99.90;;;;;;5028787;28;20433;-40
2022/03/18 00:53:47;;;;;;;7.73;6.27;;;5.50;99.90;;;;;;5028474;28;20429;-39
2022/03/18 00:56:13;;;;;;;9.47;5.53;;;5.30;99.90;;;;;;5016447;28;21025;-39
2022/03/18 00:58:38;;;;;;;10.50;5.77;;;5.30;99.90;;;;;;5027852;28;20201;-39
2022/03/18 01:01:04;;;;;;;9.30;5.80;;;5.30;99.90;;;;;;5028312;28;20286;-41
2022/03/18 01:03:30;;;;;;;11.40;5.40;;;5.50;99.90;;;;;;5028526;28;20468;-41
2022/03/18 01:05:56;;;;;;;9.30;5.37;;;5.40;99.90;;;;;;5029131;28;20225;-40
2022/03/18 01:08:21;;;;;;;9.00;4.97;;;5.40;99.90;;;;;;5028789;28;20208;-39
2022/03/18 01:10:48;;;;;;;12.27;5.00;;;5.30;99.90;;;;;;5016378;28;20674;-40
2022/03/18 01:13:14;;;;;;;7.90;4.83;;;5.40;99.90;;;;;;5028141;28;20182;-39
2022/03/18 01:15:40;;;;;;;7.30;4.87;;;5.30;99.90;;;;;;5028429;28;20437;-39
2022/03/18 01:18:06;;;;;;;10.17;5.23;;;5.30;99.90;;;;;;5028302;28;20461;-40
2022/03/18 01:20:32;;;;;;;7.27;5.00;;;5.40;99.90;;;;;;5027858;28;20457;-41
2022/03/18 01:22:57;;;;;;;7.90;5.67;;;5.30;99.90;;;;;;5015058;28;20210;-41
2022/03/18 01:25:23;;;;;;;7.50;4.87;;;5.40;99.90;;;;;;5022935;28;20781;-41
2022/03/18 01:27:49;;;;;;;5.50;4.27;;;5.40;99.90;;;;;;5026049;28;20187;-39
2022/03/18 01:30:15;;;;;;;8.83;5.10;;;5.20;99.90;;;;;;5027752;28;20194;-40
2022/03/18 01:32:41;;;;;;;5.50;4.47;;;5.30;99.90;;;;;;5028239;28;20190;-39
2022/03/18 01:35:08;;;;;;;7.50;5.60;;;5.20;99.90;;;;;;5028086;28;20279;-41
2022/03/18 01:37:33;;;;;;;5.53;4.30;;;5.10;99.90;;;;;;5028001;28;20444;-39
2022/03/18 01:39:59;;;;;;;8.93;5.53;;;5.30;99.90;;;;;;5024888;28;20578;-40
2022/03/18 01:42:25;;;;;;;11.47;6.00;;;5.00;99.90;;;;;;5015487;28;20352;-39
2022/03/18 01:44:51;;;;;;;7.30;5.10;;;5.20;99.90;;;;;;5028001;28;20191;-40
2022/03/18 01:47:18;;;;;;;8.43;5.17;;;5.20;99.90;;;;;;5028170;28;20205;-39
2022/03/18 01:49:44;;;;;;;11.17;5.10;;;5.00;99.90;;;;;;5027246;28;20425;-39
2022/03/18 01:52:11;;;;;;;8.90;5.50;;;5.10;99.90;;;;;;5027914;28;20502;-39
2022/03/18 01:54:49;;;;;;;6.10;4.10;;;5.00;99.90;;;;;;5028020;28;20437;-40
2022/03/18 01:57:23;;;;;;;6.03;4.10;;;5.10;99.90;;;;;;5016910;28;20865;-39
2022/03/18 01:59:50;;;;;;;8.37;4.67;;;5.00;99.90;;;;;;5027222;28;20436;-39
2022/03/18 02:02:17;;;;;;;8.33;4.37;;;5.20;99.90;;;;;;5026804;28;20469;-41
2022/03/18 02:04:44;;;;;;;6.33;4.67;;;5.00;99.90;;;;;;5027321;28;20425;-40
2022/03/18 02:07:11;;;;;;;7.93;5.27;;;5.30;99.90;;;;;;5026450;28;20916;-40
2022/03/18 02:09:38;;;;;;;7.50;4.73;;;5.20;99.90;;;;;;5027085;28;20777;-40
2022/03/18 02:12:05;;;;;;;7.40;4.70;;;5.10;99.90;;;;;;5013770;28;21187;-39
2022/03/18 02:14:38;;;;;;;4.70;4.20;;;5.30;99.90;;;;;;5024912;28;20428;-40
2022/03/18 02:17:06;;;;;;;7.10;4.47;;;5.30;99.90;;;;;;5006709;28;20787;-40
2022/03/18 02:19:32;;;;;;;7.60;4.67;;;5.20;99.90;;;;;;5026089;28;20429;-39
2022/03/18 02:21:58;;;;;;;6.70;5.00;;;5.40;99.90;;;;;;5027128;28;20425;-39
2022/03/18 02:24:25;;;;;;;10.40;5.20;;;5.00;99.90;;;;;;5046468;28;20431;-40
2022/03/18 02:26:54;;;;;;;8.27;4.80;;;5.20;99.90;;;;;;5021377;28;20450;-40
2022/03/18 02:29:22;;;;;;;7.93;4.73;;;5.50;99.90;;;;;;5027097;28;20425;-40
2022/03/18 02:31:48;;;;;;;6.77;4.90;;;5.30;99.90;;;;;;5025090;28;20827;-40
2022/03/18 02:34:14;;;;;;;11.17;4.60;;;5.20;99.90;;;;;;5027603;28;20421;-39
2022/03/18 02:36:41;;;;;;;7.60;4.60;;;5.20;99.90;;;;;;5027064;28;20758;-39
2022/03/18 02:39:07;;;;;;;5.57;3.80;;;5.30;99.90;;;;;;5027306;28;20928;-40
2022/03/18 02:41:33;;;;;;;7.27;4.57;;;5.20;99.90;;;;;;5017796;28;20437;-39
2022/03/18 02:43:59;;;;;;;10.77;4.83;;;5.20;99.90;;;;;;5026691;28;20244;-41
2022/03/18 02:46:25;;;;;;;7.67;4.20;;;5.10;99.90;;;;;;5026937;28;20433;-41
2022/03/18 02:48:51;;;;;;;7.23;4.90;;;5.20;99.90;;;;;;5027194;28;20805;-41
2022/03/18 02:51:16;;;;;;;10.13;5.23;;;5.30;99.90;;;;;;5025162;28;20441;-40
2022/03/18 02:53:42;;;;;;;9.70;5.30;;;5.30;99.90;;;;;;5026907;28;20269;-39
2022/03/18 02:56:08;;;;;;;9.17;4.40;;;5.10;99.90;;;;;;5017671;28;20214;-39
2022/03/18 02:58:37;;;;;;;10.33;4.37;;;5.20;99.90;;;;;;5021138;28;20646;-39
2022/03/18 03:01:03;;;;;;;9.07;4.00;;;5.50;99.90;;;;;;5026042;28;20259;-39
2022/03/18 03:03:29;;;;;;;7.57;4.33;;;5.20;99.90;;;;;;5026724;28;20468;-39
2022/03/18 03:08:41;;;;;;;8.00;4.17;;;5.20;99.90;;;;;;5027064;28;20425;-39
2022/03/18 03:11:07;;;;;;;10.23;4.67;;;5.40;99.90;;;;;;5019187;28;20897;-40
2022/03/18 03:13:33;;;;;;;6.03;5.00;;;5.30;99.90;;;;;;5021010;28;20818;-40
2022/03/18 03:16:00;;;;;;;8.37;4.23;;;5.30;99.90;;;;;;5026765;28;20456;-39
2022/03/18 03:18:26;;;;;;;7.10;4.57;;;5.20;99.90;;;;;;5026978;28;20433;-39
2022/03/18 03:20:52;;;;;;;8.03;4.50;;;5.00;99.90;;;;;;5024977;28;20524;-41
2022/03/18 03:23:19;;;;;;;5.93;4.53;;;5.10;99.90;;;;;;5036206;28;20917;-41
2022/03/18 03:25:45;;;;;;;9.10;5.10;;;5.00;99.90;;;;;;5042496;28;20723;-40
2022/03/18 03:28:11;;;;;;;7.97;5.37;;;4.90;99.90;;;;;;5020203;28;20433;-39
2022/03/18 03:30:37;;;;;;;8.50;5.57;;;4.80;99.90;;;;;;5026003;28;20190;-39
2022/03/18 03:33:03;;;;;;;6.47;4.83;;;4.80;99.90;;;;;;5026693;28;20273;-41
2022/03/18 03:35:29;;;;;;;8.57;4.37;;;4.80;99.90;;;;;;5026639;28;20511;-39
2022/03/18 03:37:54;;;;;;;7.10;3.80;;;5.00;99.90;;;;;;5026629;28;20431;-40
2022/03/18 03:40:20;;;;;;;6.33;3.77;;;5.00;99.90;;;;;;5024700;28;20252;-39
2022/03/18 03:42:46;;;;;;;9.43;4.43;;;5.50;99.90;;;;;;5017021;28;20224;-40
2022/03/18 03:45:12;;;;;;;10.80;4.57;;;5.30;99.90;;;;;;5026796;28;20190;-39
2022/03/18 03:47:39;;;;;;;6.77;4.87;;;5.50;99.90;;;;;;5026953;28;20194;-39
2022/03/18 03:50:06;;;;;;;8.77;4.70;;;5.50;99.90;;;;;;5025684;28;20421;-40
2022/03/18 03:52:32;;;;;;;6.00;3.90;;;5.50;99.90;;;;;;5026523;28;20490;-40
2022/03/18 03:54:58;;;;;;;5.47;4.30;;;5.30;99.90;;;;;;5024755;28;20540;-39
2022/03/18 03:57:23;;;;;;;8.97;4.60;;;5.30;99.90;;;;;;5013282;28;20647;-40
2022/03/18 03:59:49;;;;;;;4.90;3.53;;;5.70;99.90;;;;;;5022451;28;20190;-40
2022/03/18 04:02:15;;;;;;;8.00;5.03;;;5.60;99.90;;;;;;5026324;28;20210;-39
2022/03/18 04:04:40;;;;;;;5.83;4.00;;;5.50;99.90;;;;;;5027376;28;20181;-40
2022/03/18 04:07:07;;;;;;;9.87;4.53;;;5.50;99.90;;;;;;5028713;28;20711;-39
2022/03/18 04:09:33;;;;;;;6.87;4.13;;;5.50;99.90;;;;;;5028006;28;20198;-39
2022/03/18 04:11:59;;;;;;;5.90;4.90;;;5.30;99.90;;;;;;5019979;28;20446;-39
2022/03/18 04:14:25;;;;;;;9.37;5.43;;;5.40;99.90;;;;;;5026429;28;20425;-39
2022/03/18 04:16:50;;;;;;;8.20;4.97;;;5.40;99.90;;;;;;5029826;28;20285;-39
2022/03/18 04:19:17;;;;;;;12.03;6.20;;;5.60;99.90;;;;;;5029647;28;20568;-40
2022/03/18 04:21:43;;;;;;;8.27;5.23;;;5.60;99.90;;;;;;5028922;28;20709;-40
2022/03/18 04:24:09;;;;;;;12.50;5.40;;;5.60;99.90;;;;;;5046474;28;20475;-40
2022/03/18 04:26:35;;;;;;;8.33;4.87;;;5.80;99.90;;;;;;5038106;28;20192;-40
2022/03/18 04:29:00;;;;;;;8.23;5.20;;;5.90;99.90;;;;;;5020874;28;20436;-40
2022/03/18 04:31:26;;;;;;;10.07;5.37;;;5.80;99.90;;;;;;5027367;28;20205;-40
2022/03/18 04:33:52;;;;;;;11.90;6.00;;;5.90;99.90;;;;;;5027980;28;20198;-40
2022/03/18 04:36:17;;;;;;;7.70;5.67;;;6.00;99.90;;;;;;5029201;28;20571;-40
2022/03/18 04:38:43;;;;;;;8.67;5.17;;;5.80;99.90;;;;;;5029413;28;20270;-40
2022/03/18 04:41:09;;;;;;;9.40;5.87;;;5.60;99.90;;;;;;5028001;28;20202;-39
2022/03/18 04:43:34;;;;;;;8.60;5.60;;;5.90;99.90;;;;;;5019485;28;20234;-39
2022/03/18 04:46:00;;;;;;;8.13;5.80;;;5.60;99.90;;;;;;5027890;28;20186;-40
2022/03/18 04:48:26;;;;;;;8.63;5.20;;;5.70;99.90;;;;;;5029332;28;20321;-39
2022/03/18 04:50:51;;;;;;;9.20;5.70;;;5.90;99.90;;;;;;5028392;28;20190;-39
2022/03/18 04:53:17;;;;;;;8.30;5.43;;;5.60;99.90;;;;;;5027844;28;20201;-40
2022/03/18 04:55:43;;;;;;;9.10;6.00;;;5.70;99.90;;;;;;5026961;28;20317;-39
2022/03/18 04:58:08;;;;;;;9.20;5.70;;;5.60;99.90;;;;;;5019590;28;20214;-39
2022/03/18 05:00:35;;;;;;;9.00;5.50;;;5.80;99.90;;;;;;5028236;28;20202;-39
2022/03/18 05:03:02;;;;;;;9.93;5.83;;;5.80;99.90;;;;;;5028790;28;20218;-39
2022/03/18 05:05:27;;;;;;;8.90;5.90;;;5.80;99.90;;;;;;5029024;28;20426;-39
2022/03/18 05:07:53;;;;;;;10.70;5.00;;;5.90;99.90;;;;;;5028687;28;20690;-40
2022/03/18 05:10:19;;;;;;;8.10;5.20;;;5.80;99.90;;;;;;5028031;28;20182;-39
2022/03/18 05:12:45;;;;;;;8.40;5.70;;;5.60;99.90;;;;;;5020976;28;20437;-39
2022/03/18 05:15:12;;;;;;;9.37;5.60;;;5.40;99.90;;;;;;5028443;28;20812;-40
2022/03/18 05:17:39;;;;;;;6.87;5.50;;;5.30;99.90;;;;;;5027753;28;20427;-40
2022/03/18 05:20:10;;;;;;;7.60;5.57;;;5.30;99.90;;;;;;5028121;28;20433;-40
2022/03/18 05:22:36;;;;;;;10.67;5.50;;;4.90;99.90;;;;;;5032341;28;20819;-40
2022/03/18 05:25:02;;;;;;;11.80;6.10;;;4.90;99.90;;;;;;5048226;28;20427;-40
2022/03/18 05:27:27;;;;;;;8.87;5.63;;;4.90;99.90;;;;;;5036634;28;20803;-39
2022/03/18 05:29:53;;;;;;;10.73;5.97;;;4.80;99.90;;;;;;5025259;28;20425;-40
2022/03/18 05:32:19;;;;;;;7.47;6.00;;;4.90;99.90;;;;;;5028287;28;20292;-40
2022/03/18 05:34:45;;;;;;;8.40;5.90;;;4.60;99.90;;;;;;5028960;28;20182;-40
2022/03/18 05:37:11;;;;;;;10.50;6.20;;;4.60;99.90;;;;;;5028006;28;20440;-39
2022/03/18 05:39:37;;;;;;;8.20;5.97;;;4.50;99.90;;;;;;5027566;28;20453;-39
2022/03/18 05:42:04;;;;;;;10.23;6.23;;;4.40;99.90;;;;;;5024920;28;20491;-41
2022/03/18 05:44:30;;;;;;;10.30;6.37;;;4.40;99.90;;;;;;5022137;28;20466;-41
2022/03/18 05:46:56;;;;;;;10.20;6.33;;;4.40;99.90;;;;;;5028328;28;20429;-39
2022/03/18 05:49:22;;;;;;;12.50;6.30;;;4.30;99.90;;;;;;5028044;28;20465;-39
2022/03/18 05:51:48;;;;;;;7.20;5.57;;;4.10;99.90;;;;;;5027237;28;20421;-39
2022/03/18 05:54:14;;;;;;;8.00;6.50;;;4.30;99.90;;;;;;5027735;28;20779;-39
2022/03/18 05:56:52;;;;;;;11.33;6.37;;;4.30;99.90;;;;;;5026385;28;20198;-39
2022/03/18 05:59:22;;;;;;;9.83;6.00;;;4.00;99.90;;;;;;5020148;28;20603;-39
2022/03/18 06:01:48;;;;;;;8.83;6.93;;;4.10;99.90;;;;;;5027010;28;20421;-39
2022/03/18 06:04:14;;;;;;;9.93;6.67;;;4.00;99.90;;;;;;5027488;28;20469;-39
2022/03/18 06:06:42;;;;;;;9.97;6.50;;;4.40;99.90;;;;;;5027483;28;20528;-39
2022/03/18 06:11:53;;;;;;;11.83;8.10;;;4.40;99.90;;;;;;5010402;28;20417;-39
2022/03/18 06:14:20;;;;;;;7.40;6.03;;;4.40;99.90;;;;;;5018591;28;20471;-39
2022/03/18 06:16:51;;;;;;;9.77;5.90;;;4.50;99.90;;;;;;5027285;28;20429;-40
2022/03/18 06:19:18;;;;;;;13.80;7.47;;;4.20;99.90;;;;;;5027218;28;20439;-40
2022/03/18 06:21:45;;;;;;;7.80;6.47;;;4.40;99.90;;;;;;5026809;28;20424;-39
2022/03/18 06:24:12;;;;;;;10.83;6.50;;;4.40;99.90;;;;;;5043892;28;20475;-39
2022/03/18 06:26:38;;;;;;;9.60;7.03;;;4.30;99.90;;;;;;5047277;28;20416;-41
2022/03/18 06:29:05;;;;;;;15.60;8.03;;;4.40;99.90;;;;;;5014268;28;20524;-42
2022/03/18 06:31:32;;;;;;;10.17;7.50;;;4.50;99.90;;;;;;5026676;28;20915;-39
2022/03/18 06:33:58;;;;;;;10.43;7.50;;;4.60;99.90;;;;;;5027377;28;20435;-39
2022/03/18 06:36:23;;;;;;;9.77;7.33;;;4.80;99.90;;;;;;5027202;28;20800;-39
2022/03/18 06:38:49;;;;;;;18.23;8.00;;;4.70;99.90;;;;;;5027606;28;20190;-39
2022/03/18 06:41:16;;;;;;;11.37;7.63;;;5.00;99.90;;;;;;5026677;28;20194;-41
2022/03/18 06:43:42;;;;;;;9.60;6.67;;;5.10;99.90;;;;;;5015759;28;20260;-39
2022/03/18 06:46:08;;;;;;;11.20;6.90;;;5.30;99.90;;;;;;5026706;28;20428;-39
2022/03/18 06:48:34;;;;;;;10.10;7.00;;;5.20;99.90;;;;;;5027577;28;20432;-42
2022/03/18 06:51:00;;;;;;;13.20;7.50;;;5.30;99.90;;;;;;5026424;28;20417;-39
2022/03/18 06:53:27;;;;;;;12.57;8.80;;;5.30;99.90;;;;;;5027191;28;20193;-39
2022/03/18 06:55:52;;;;;;;10.80;7.90;;;5.50;99.90;;;;;;5025375;28;20803;-40
2022/03/18 06:58:18;;;;;;;9.30;7.70;;;5.40;99.90;;;;;;5016332;28;20444;-40
2022/03/18 07:00:44;;;;;;;11.30;8.07;;;5.50;99.90;;;;;;5022264;28;20181;-39
2022/03/18 07:03:09;;;;;;;13.30;8.10;;;5.40;99.90;;;;;;5027128;28;20206;-40
2022/03/18 07:05:35;;;;;;;12.60;9.10;;;5.50;99.90;;;;;;5027142;28;20178;-39
2022/03/18 07:08:01;;;;;;;16.20;8.50;;;5.80;99.90;;;;;;5026866;28;20210;-39
2022/03/18 07:10:26;;;;;;;15.10;8.93;;;5.80;99.90;;;;;;5005534;28;20684;-39
2022/03/18 07:12:52;;;;;;;13.00;9.37;;;5.90;99.90;;;;;;5020186;28;20609;-39
2022/03/18 07:15:18;;;;;;;12.63;9.33;;;5.70;99.90;;;;;;5021089;28;20236;-39
2022/03/18 07:18:17;;;;;;;14.57;9.87;;;6.00;99.90;;;;;;5026741;28;20206;-39
2022/03/18 07:20:38;;;;;;;14.80;9.43;;;6.20;99.90;;;;;;5025879;28;20289;-40
2022/03/18 07:23:05;;;;;;;11.40;9.00;;;6.20;99.90;;;;;;5034162;28;20555;-39
2022/03/18 07:25:33;;;;;;;11.93;8.63;;;6.60;99.90;;;;;;5046629;28;20460;-39
2022/03/18 07:27:58;;;;;;;10.33;8.23;;;6.80;99.90;;;;;;5034941;28;21010;-39
2022/03/18 07:30:24;;;;;;;13.97;9.67;;;6.90;99.90;;;;;;5023063;28;20445;-41
2022/03/18 07:32:50;;;;;;;12.63;8.80;;;7.20;99.90;;;;;;5026924;28;20568;-40
2022/03/18 07:35:16;;;;;;;12.07;9.20;;;7.20;99.90;;;;;;5026723;28;20660;-39
2022/03/18 07:37:42;;;;;;;13.93;10.10;;;7.40;99.90;;;;;;5026658;28;20783;-39
2022/03/18 07:40:09;;;;;;;12.67;8.77;;;7.60;99.90;;;;;;5025641;28;20432;-39
2022/03/18 07:42:44;;;;;;;14.90;8.70;;;7.90;99.90;;;;;;5026664;28;20730;-40
2022/03/18 07:45:26;;;;;;;17.30;8.77;;;8.10;99.90;;;;;;5022473;28;20412;-39
2022/03/18 07:47:53;;;;;;;14.40;9.80;;;8.50;99.90;;;;;;5029607;28;20830;-39
2022/03/18 07:50:20;;;;;;;14.27;9.20;;;8.60;99.90;;;;;;5028451;28;20433;-40
2022/03/18 07:52:50;;;;;;;14.10;10.40;;;8.90;99.90;;;;;;5030322;28;20508;-39
2022/03/18 07:55:21;;;;;;;10.17;8.50;;;9.00;99.90;;;;;;5027009;28;20513;-40
2022/03/18 07:57:47;;;;;;;15.93;9.10;;;9.00;99.90;;;;;;5025943;28;20457;-40
2022/03/18 08:00:14;;;;;;;12.20;8.63;;;9.20;99.90;;;;;;5021296;28;20829;-40
2022/03/18 08:02:41;;;;;;;15.50;8.27;;;9.30;99.90;;;;;;5029780;28;20511;-39
2022/03/18 08:05:07;;;;;;;20.37;8.50;;;9.70;99.90;;;;;;5028851;28;20425;-39
2022/03/18 08:07:36;;;;;;;11.90;8.43;;;9.50;99.90;;;;;;5030232;28;20493;-40
2022/03/18 08:10:02;;;;;;;11.20;7.93;;;9.70;99.90;;;;;;5028099;28;20427;-40
2022/03/18 08:12:28;;;;;;;9.30;7.40;;;9.70;99.90;;;;;;5008999;28;20635;-39
2022/03/18 08:15:03;;;;;;;10.03;7.50;;;9.80;99.90;;;;;;5020564;28;20444;-40
2022/03/18 08:17:29;;;;;;;9.50;7.10;;;9.70;99.90;;;;;;5028752;28;20435;-39
2022/03/18 08:19:55;;;;;;;9.93;7.10;;;9.60;99.90;;;;;;5028919;28;20424;-40
2022/03/18 08:22:22;;;;;;;8.97;6.67;;;9.60;99.90;;;;;;5031502;28;20230;-41
2022/03/18 08:24:51;;;;;;;7.77;5.73;;;9.80;99.90;;;;;;5049974;28;20897;-39
2022/03/18 08:27:17;;;;;;;9.83;7.40;;;9.80;99.90;;;;;;5048506;28;20420;-39
2022/03/18 08:29:45;;;;;;;12.67;7.63;;;9.70;99.90;;;;;;5022350;28;20468;-39
2022/03/18 08:32:13;;;;;;;9.30;6.40;;;9.80;99.90;;;;;;5028375;28;20642;-40
2022/03/18 08:34:39;;;;;;;8.07;5.60;;;9.90;99.90;;;;;;5029555;28;20515;-39
2022/03/18 08:37:05;;;;;;;10.33;5.60;;;9.80;99.90;;;;;;5029571;28;20848;-40
2022/03/18 08:39:35;;;;;;;8.87;6.23;;;9.90;99.90;;;;;;5028375;28;20520;-39
2022/03/18 08:42:01;;;;;;;10.33;6.33;;;9.90;99.90;;;;;;5029268;28;20753;-39
2022/03/18 08:44:27;;;;;;;8.23;5.90;;;10.10;99.90;;;;;;5023735;28;20433;-40
2022/03/18 08:46:53;;;;;;;11.40;5.37;;;10.20;99.90;;;;;;5029093;28;20206;-42
2022/03/18 08:49:18;;;;;;;9.70;5.70;;;10.20;99.90;;;;;;5028530;28;20288;-39
2022/03/18 08:51:44;;;;;;;6.40;5.10;;;10.30;99.90;;;;;;5027441;28;20553;-40
2022/03/18 08:54:10;;;;;;;7.80;4.97;;;10.30;99.90;;;;;;5029537;28;20333;-39
2022/03/18 08:56:36;;;;;;;7.27;5.33;;;10.50;99.90;;;;;;5028246;28;20230;-39
2022/03/18 08:59:06;;;;;;;9.37;5.70;;;10.50;99.90;;;;;;5020076;28;20218;-39
2022/03/18 09:01:35;;;;;;;7.07;5.23;;;10.50;99.90;;;;;;5025239;28;20795;-40
2022/03/18 09:04:01;;;;;;;9.17;5.87;;;10.50;99.90;;;;;;5027899;28;20504;-39
2022/03/18 09:06:27;;;;;;;7.70;5.60;;;10.50;99.90;;;;;;5028882;28;20959;-39
2022/03/18 09:08:53;;;;;;;6.60;5.50;;;10.70;99.90;;;;;;5029191;28;20198;-39
2022/03/18 09:11:18;;;;;;;5.73;5.07;;;10.90;99.90;;;;;;5028108;28;20217;-39
2022/03/18 09:13:44;;;;;;;9.83;4.70;;;10.80;99.90;;;;;;5021827;28;20889;-40
2022/03/18 09:16:12;;;;;;;5.63;3.97;;;11.10;99.90;;;;;;5027616;28;20569;-41
2022/03/18 09:18:38;;;;;;;14.03;4.77;;;11.30;99.90;;;;;;5028780;28;20191;-40
2022/03/18 09:21:04;;;;;;;5.90;4.20;;;11.40;99.20;;;;;;5028426;28;20433;-39
2022/03/18 09:23:29;;;;;;;6.07;4.67;;;11.30;98.20;;;;;;5040241;28;20500;-39
2022/03/18 09:25:56;;;;;;;4.90;3.63;;;11.60;98.70;;;;;;5048693;28;20193;-40
2022/03/18 09:28:23;;;;;;;10.37;4.43;;;11.50;99.50;;;;;;5039925;28;20504;-44
2022/03/18 09:30:49;;;;;;;8.13;4.10;;;11.70;98.30;;;;;;5019757;28;20432;-41
2022/03/18 09:33:15;;;;;;;4.60;3.40;;;11.90;98.40;;;;;;5028395;28;20793;-43
2022/03/18 09:35:42;;;;;;;6.10;3.20;;;12.00;97.10;;;;;;5028905;28;20441;-40
2022/03/18 09:38:07;;;;;;;4.77;3.97;;;12.20;96.30;;;;;;5028278;28;20221;-39
2022/03/18 09:40:33;;;;;;;6.50;3.83;;;12.30;96.20;;;;;;5027917;28;20437;-43
2022/03/18 09:43:05;;;;;;;7.00;4.03;;;12.60;96.20;;;;;;5028689;28;20233;-40
2022/03/18 09:45:34;;;;;;;4.47;3.30;;;12.70;96.00;;;;;;5017670;28;20190;-40
2022/03/18 09:48:01;;;;;;;4.90;3.10;;;12.90;95.00;;;;;;5028172;28;20413;-42
2022/03/18 09:50:30;;;;;;;3.60;2.70;;;12.90;94.80;;;;;;5027698;28;20425;-40
2022/03/18 09:52:56;;;;;;;4.20;3.00;;;13.00;93.40;;;;;;5028200;28;20517;-40
2022/03/18 09:55:22;;;;;;;4.33;3.20;;;13.10;93.10;;;;;;5027311;28;20860;-40
2022/03/18 09:57:48;;;;;;;6.17;3.87;;;13.30;93.70;;;;;;5028070;28;20734;-40
2022/03/18 10:00:15;;;;;;;8.50;3.83;;;13.40;93.20;;;;;;5017925;28;20441;-39
2022/03/18 10:02:41;;;;;;;5.80;3.13;;;13.50;93.60;;;;;;5023267;28;20215;-40
2022/03/18 10:05:14;;;;;;;7.50;3.03;;;13.60;92.70;;;;;;5028171;28;20417;-40
2022/03/18 10:07:53;;;;;;;7.57;2.60;;;13.70;92.50;;;;;;5028173;28;20467;-39
2022/03/18 10:10:20;;;;;;;3.40;2.73;;;13.80;92.70;;;;;;5025679;28;20462;-40
2022/03/18 10:12:49;;;;;;;4.97;3.47;;;13.90;92.10;;;;;;5043237;28;21038;-40
2022/03/18 10:15:22;;;;;;;8.50;3.50;;;13.90;91.40;;;;;;5020603;28;20440;-43
2022/03/18 10:17:49;;;;;;;3.67;3.07;;;13.90;91.60;;;;;;5027568;28;20425;-42
2022/03/18 10:20:33;;;;;;;5.10;3.33;;;14.00;92.30;;;;;;5026914;28;20512;-42
2022/03/18 10:23:22;;;;;;;6.87;3.70;;;14.20;91.60;;;;;;5034328;28;20494;-40
2022/03/18 10:25:57;;;;;;;4.17;3.40;;;14.20;91.40;;;;;;5047411;28;20847;-43
2022/03/18 10:28:37;;;;;;;5.13;3.53;;;14.30;91.60;;;;;;5046585;28;20797;-41
2022/03/18 10:31:11;;;;;;;5.07;3.87;;;14.40;91.30;;;;;;5017618;28;20989;-40
2022/03/18 10:39:45;;;;;;;5.40;3.83;;;14.50;90.30;;;;;;5027200;28;20437;-40
2022/03/18 10:42:16;;;;;;;4.00;3.40;;;14.50;90.00;;;;;;5027413;28;21069;-40
2022/03/18 10:44:41;;;;;;;5.40;4.07;;;14.60;90.70;;;;;;5017759;28;20421;-41
2022/03/18 10:47:07;;;;;;;4.70;3.90;;;14.60;90.10;;;;;;5026446;28;20427;-40
2022/03/18 10:49:33;;;;;;;4.60;3.60;;;14.70;90.70;;;;;;5026903;28;20175;-39
2022/03/18 10:52:10;;;;;;;6.67;4.00;;;14.70;87.80;;;;;;5026997;28;20931;-40
2022/03/18 10:54:36;;;;;;;3.77;3.47;;;14.60;86.70;;;;;;5027541;28;20181;-39
2022/03/18 10:57:02;;;;;;;5.20;3.43;;;14.50;87.30;;;;;;5026049;28;20441;-40
2022/03/18 10:59:27;;;;;;;5.83;4.20;;;14.50;87.90;;;;;;5019956;28;20233;-41
2022/03/18 11:01:56;;;;;;;7.13;4.67;;;14.60;89.60;;;;;;5025332;28;20409;-40
2022/03/18 11:04:23;;;;;;;5.53;4.30;;;14.50;86.90;;;;;;5025434;28;20206;-40
2022/03/18 11:12:27;;;;;;;7.97;4.47;;;14.50;90.60;;;;;;5026790;28;20425;-39
2022/03/18 11:14:56;;;;;;;5.27;4.60;;;14.50;87.30;;;;;;5022311;28;20430;-42
2022/03/18 11:17:23;;;;;;;8.17;4.77;;;14.40;87.70;;;;;;5030817;28;20419;-40
2022/03/18 11:19:50;;;;;;;6.20;4.93;;;14.30;87.90;;;;;;5030480;28;20492;-42
2022/03/18 11:22:17;;;;;;;5.53;4.50;;;14.30;89.90;;;;;;5031998;28;20432;-40
2022/03/18 11:24:45;;;;;;;5.33;4.67;;;14.50;88.20;;;;;;5039490;28;20485;-44
2022/03/18 11:27:12;;;;;;;10.20;4.40;;;14.60;89.60;;;;;;5050557;28;20412;-41
2022/03/18 11:29:38;;;;;;;7.40;5.57;;;14.60;87.80;;;;;;5035012;28;20449;-40
2022/03/18 11:32:10;;;;;;;4.83;4.10;;;14.60;88.10;;;;;;5026910;28;20444;-40
2022/03/18 11:34:59;;;;;;;8.83;4.40;;;14.70;88.90;;;;;;5030749;28;20487;-44
2022/03/18 11:37:26;;;;;;;5.20;4.40;;;14.80;86.80;;;;;;5030542;28;20504;-42
2022/03/18 11:39:51;;;;;;;7.83;4.83;;;14.80;85.30;;;;;;5028520;28;20424;-41
2022/03/18 11:42:22;;;;;;;5.97;4.73;;;14.80;86.50;;;;;;5029215;28;20428;-40
2022/03/18 11:45:01;;;;;;;6.07;5.47;;;14.70;86.80;;;;;;5022989;28;20461;-40
2022/03/18 11:47:30;;;;;;;8.30;5.63;;;14.70;89.80;;;;;;5022643;28;20787;-40
2022/03/18 11:49:56;;;;;;;5.47;4.60;;;14.70;88.90;;;;;;5029692;28;20534;-40
2022/03/18 11:52:22;;;;;;;7.20;4.20;;;14.80;89.60;;;;;;5030315;28;20424;-39
2022/03/18 11:55:06;;;;;;;5.03;4.13;;;14.90;85.70;;;;;;5029752;28;20823;-40
2022/03/18 11:57:43;;;;;;;9.13;5.17;;;15.10;87.80;;;;;;5030488;28;20194;-39
2022/03/18 12:00:29;;;;;;;6.33;4.87;;;15.20;86.20;;;;;;5024635;28;20582;-40
2022/03/18 12:02:55;;;;;;;7.33;5.53;;;15.30;88.30;;;;;;5027245;28;20531;-41
2022/03/18 12:05:21;;;;;;;4.93;4.53;;;15.40;83.20;;;;;;5030380;28;20461;-40
2022/03/18 12:07:54;;;;;;;4.43;4.00;;;15.20;82.30;;;;;;5030119;28;20313;-40
2022/03/18 12:10:36;;;;;;;5.80;4.57;;;15.20;81.60;;;;;;5029361;28;20432;-40
2022/03/18 12:13:03;;;;;;;6.67;5.57;;;15.20;82.50;;;;;;5029945;28;20433;-41
2022/03/18 12:15:30;;;;;;;6.20;5.33;;;15.20;84.50;;;;;;5021733;28;20452;-41
2022/03/18 12:17:57;;;;;;;7.20;5.40;;;15.10;84.20;;;;;;5028806;28;20433;-40
2022/03/18 12:20:42;;;;;;;7.30;5.17;;;15.10;83.00;;;;;;5029030;28;20429;-43
2022/03/18 12:23:09;;;;;;;7.27;4.70;;;15.20;83.00;;;;;;5034977;28;20513;-40
2022/03/18 12:25:40;;;;;;;7.73;4.47;;;15.30;83.20;;;;;;5044071;28;20427;-40
2022/03/18 12:28:06;;;;;;;5.03;4.43;;;15.40;86.10;;;;;;5048446;28;20826;-40
2022/03/18 12:30:32;;;;;;;6.93;4.33;;;15.40;81.30;;;;;;5027996;28;20445;-40
2022/03/18 12:32:59;;;;;;;6.90;4.60;;;15.40;83.20;;;;;;5027514;28;20197;-44
2022/03/18 12:35:31;;;;;;;5.60;4.70;;;15.50;82.20;;;;;;5029310;28;20509;-42
2022/03/18 12:38:06;;;;;;;4.27;3.50;;;15.50;82.80;;;;;;5028407;28;20862;-41
2022/03/18 12:40:33;;;;;;;5.80;4.03;;;15.60;82.30;;;;;;5028893;28;20799;-42
2022/03/18 12:43:02;;;;;;;4.63;3.70;;;15.60;81.30;;;;;;5029660;28;20468;-41
2022/03/18 12:45:30;;;;;;;7.37;3.67;;;15.60;79.20;;;;;;5022218;28;20430;-40
2022/03/18 12:48:05;;;;;;;6.43;3.57;;;15.50;76.60;;;;;;5027216;28;20791;-42
2022/03/18 12:50:33;;;;;;;5.10;3.63;;;15.40;77.00;;;;;;5023171;28;21026;-42
2022/03/18 12:53:00;;;;;;;4.80;3.40;;;15.40;77.20;;;;;;5029454;28;20436;-42
2022/03/18 12:55:26;;;;;;;4.57;3.43;;;15.40;75.80;;;;;;5028282;28;20453;-40
2022/03/18 12:57:53;;;;;;;9.70;4.53;;;15.40;76.40;;;;;;5029467;28;20463;-40
2022/03/18 13:00:21;;;;;;;4.30;3.60;;;15.40;76.80;;;;;;5021496;28;20438;-40
2022/03/18 13:02:50;;;;;;;5.57;2.90;;;15.40;76.80;;;;;;5025023;28;20465;-43
2022/03/18 13:05:16;;;;;;;4.37;3.23;;;15.50;75.90;;;;;;5020801;28;20433;-40
2022/03/18 13:07:42;;;;;;;5.37;3.83;;;15.60;75.30;;;;;;5027870;28;20772;-43
2022/03/18 13:10:09;;;;;;;6.43;3.47;;;15.60;75.50;;;;;;5028357;28;20992;-43
2022/03/18 13:12:36;;;;;;;5.70;3.90;;;15.50;77.80;;;;;;5028570;28;20421;-41
2022/03/18 13:15:19;;;;;;;6.17;3.00;;;15.40;76.30;;;;;;5024628;28;20561;-45